TimeCST,TemperatureF,Dew PointF,Humidity,Sea Level PressureIn,VisibilityMPH,Wind Direction,Wind SpeedMPH,Gust SpeedMPH,PrecipitationIn,Events,Conditions,WindDirDegrees,DateUTC
12:15 AM,-18.4,-23.8,76,30.36,10.0,Calm,Calm,-,N/A,,Clear,0,2014-03-03 06:15:00
12:35 AM,-21.5,-28.3,71,30.38,10.0,Calm,Calm,-,N/A,,Clear,0,2014-03-03 06:35:00
12:55 AM,-15.7,-20.7,78,30.38,10.0,Calm,Calm,-,N/A,,Clear,0,2014-03-03 06:55:00
1:15 AM,-20.6,-26.9,73,30.38,10.0,Calm,Calm,-,N/A,,Clear,0,2014-03-03 07:15:00
1:35 AM,-20.6,-26.7,73,30.38,10.0,Calm,Calm,-,N/A,,Clear,0,2014-03-03 07:35:00
1:55 AM,-23.4,-29.7,72,30.38,10.0,Calm,Calm,-,N/A,,Clear,0,2014-03-03 07:55:00
2:15 AM,-25.1,-31.4,72,30.38,10.0,Calm,Calm,-,N/A,,Clear,0,2014-03-03 08:15:00
2:35 AM,-25.1,-30.8,74,30.38,10.0,Calm,Calm,-,N/A,,Clear,0,2014-03-03 08:35:00
2:55 AM,-26.5,-33.0,71,30.38,10.0,Calm,Calm,-,N/A,,Clear,0,2014-03-03 08:55:00
3:15 AM,-23.1,-28.5,76,30.38,10.0,Calm,Calm,-,N/A,,Clear,0,2014-03-03 09:15:00
3:35 AM,-22.2,-28.1,74,30.39,10.0,Calm,Calm,-,N/A,,Clear,0,2014-03-03 09:35:00
3:55 AM,-26.3,-32.6,72,30.39,10.0,Calm,Calm,-,N/A,,Clear,0,2014-03-03 09:55:00
4:15 AM,-25.1,-31.0,74,30.40,10.0,Calm,Calm,-,N/A,,Clear,0,2014-03-03 10:15:00
4:35 AM,-27.6,-34.6,69,30.40,10.0,Calm,Calm,-,N/A,,Clear,0,2014-03-03 10:35:00
4:55 AM,-27.8,-34.8,69,30.40,10.0,Calm,Calm,-,N/A,,Clear,0,2014-03-03 10:55:00
5:15 AM,-28.7,-35.5,70,30.40,10.0,Calm,Calm,-,N/A,,Clear,0,2014-03-03 11:15:00
5:35 AM,-28.5,-35.7,68,30.39,10.0,Calm,Calm,-,N/A,,Clear,0,2014-03-03 11:35:00
5:55 AM,-30.3,-37.7,68,30.38,10.0,Calm,Calm,-,N/A,,Clear,0,2014-03-03 11:55:00
6:15 AM,-30.1,-37.3,68,30.38,10.0,Calm,Calm,-,N/A,,Clear,0,2014-03-03 12:15:00
6:35 AM,-30.3,-37.5,68,30.38,10.0,Calm,Calm,-,N/A,,Clear,0,2014-03-03 12:35:00
6:55 AM,-31.9,-39.1,68,30.38,10.0,Calm,Calm,-,N/A,,Clear,0,2014-03-03 12:55:00
7:15 AM,-29.0,-36.0,69,30.38,10.0,Calm,Calm,-,N/A,,Clear,0,2014-03-03 13:15:00
7:35 AM,-27.2,-34.4,69,30.38,10.0,Calm,Calm,-,N/A,,Clear,0,2014-03-03 13:35:00
7:55 AM,-21.1,-27.4,73,30.38,10.0,Calm,Calm,-,N/A,,Clear,0,2014-03-03 13:55:00
8:15 AM,-19.1,-25.6,72,30.38,10.0,Calm,Calm,-,N/A,,Clear,0,2014-03-03 14:15:00
8:35 AM,-11.4,-18.4,71,30.38,10.0,Calm,Calm,-,N/A,,Clear,0,2014-03-03 14:35:00
8:55 AM,-6.7,-15.9,64,30.38,10.0,Calm,Calm,-,N/A,,Clear,0,2014-03-03 14:55:00
9:15 AM,-3.6,-14.8,59,30.37,10.0,Calm,Calm,-,N/A,,Clear,0,2014-03-03 15:15:00
9:35 AM,-1.1,-13.2,57,30.37,10.0,Calm,Calm,-,N/A,,Clear,0,2014-03-03 15:35:00
9:55 AM,1.6,-12.1,53,30.37,10.0,Calm,Calm,-,N/A,,Clear,0,2014-03-03 15:55:00
10:15 AM,3.6,-11.7,49,30.37,10.0,WSW,3.5,-,N/A,,Clear,250,2014-03-03 16:15:00
10:35 AM,5.0,-11.6,46,30.36,10.0,West,5.8,-,N/A,,Clear,280,2014-03-03 16:35:00
10:55 AM,6.6,-11.2,44,30.35,10.0,Calm,Calm,-,N/A,,Clear,0,2014-03-03 16:55:00
11:15 AM,8.4,-10.5,42,30.34,10.0,Calm,Calm,-,N/A,,Clear,0,2014-03-03 17:15:00
11:35 AM,10.0,-11.0,38,30.34,10.0,Calm,Calm,-,N/A,,Clear,0,2014-03-03 17:35:00
11:55 AM,11.1,-9.8,39,30.33,10.0,Calm,Calm,-,N/A,,Clear,0,2014-03-03 17:55:00
12:15 PM,11.8,-10.3,37,30.32,10.0,Calm,Calm,-,N/A,,Scattered Clouds,0,2014-03-03 18:15:00
12:35 PM,13.1,-9.4,36,30.31,10.0,WSW,4.6,-,N/A,,Scattered Clouds,240,2014-03-03 18:35:00
12:55 PM,13.5,-8.9,37,30.31,10.0,Calm,Calm,-,N/A,,Scattered Clouds,0,2014-03-03 18:55:00
1:15 PM,13.6,-9.4,35,30.30,10.0,WSW,5.8,-,N/A,,Scattered Clouds,240,2014-03-03 19:15:00
1:35 PM,14.0,-9.6,34,30.29,10.0,Calm,Calm,-,N/A,,Clear,0,2014-03-03 19:35:00
2:15 PM,13.8,-9.4,35,30.29,10.0,Calm,Calm,-,N/A,,Scattered Clouds,0,2014-03-03 20:15:00
2:16 PM,14.0,-9.4,35,30.29,10.0,Calm,Calm,-,N/A,,Scattered Clouds,0,2014-03-03 20:16:00
2:35 PM,14.9,-8.1,36,30.29,10.0,Calm,Calm,-,N/A,,Mostly Cloudy,0,2014-03-03 20:35:00
2:55 PM,14.7,-8.7,35,30.27,10.0,Calm,Calm,-,N/A,,Scattered Clouds,0,2014-03-03 20:55:00
3:15 PM,15.6,-8.7,34,30.27,10.0,WSW,4.6,-,N/A,,Mostly Cloudy,250,2014-03-03 21:15:00
3:35 PM,14.9,-9.2,34,30.27,10.0,Calm,Calm,-,N/A,,Scattered Clouds,0,2014-03-03 21:35:00
3:55 PM,14.0,-9.4,35,30.26,10.0,WSW,3.5,-,N/A,,Scattered Clouds,240,2014-03-03 21:55:00
4:10 PM,13.6,-9.0,36,30.27,10.0,SW,4.6,-,N/A,,Mostly Cloudy,220,2014-03-03 22:10:00
4:35 PM,12.2,-8.9,39,30.27,10.0,Calm,Calm,-,N/A,,Mostly Cloudy,0,2014-03-03 22:35:00
4:55 PM,11.8,-8.5,40,30.26,10.0,SW,3.5,-,N/A,,Overcast,220,2014-03-03 22:55:00
5:15 PM,11.3,-8.7,40,30.26,10.0,Calm,Calm,-,N/A,,Overcast,0,2014-03-03 23:15:00
5:35 PM,10.4,-8.7,42,30.26,10.0,Calm,Calm,-,N/A,,Overcast,0,2014-03-03 23:35:00
5:55 PM,9.7,-8.0,45,30.27,10.0,Calm,Calm,-,N/A,,Overcast,0,2014-03-03 23:55:00
6:15 PM,8.4,-2.2,62,30.26,2.5,SSW,4.6,-,N/A,Snow,Light Snow,210,2014-03-04 00:15:00
6:35 PM,7.3,0.1,72,30.26,3.0,WSW,3.5,-,N/A,Snow,Light Snow,240,2014-03-04 00:35:00
6:55 PM,6.8,0.9,77,30.26,2.5,Calm,Calm,-,N/A,Snow,Light Snow,0,2014-03-04 00:55:00
7:15 PM,6.6,1.9,81,30.26,1.8,Calm,Calm,-,N/A,Snow,Light Snow,0,2014-03-04 01:15:00
7:35 PM,6.4,1.8,81,30.25,7.0,Calm,Calm,-,N/A,Snow,Light Snow,0,2014-03-04 01:35:00
7:55 PM,6.4,0.9,78,30.25,10.0,Calm,Calm,-,N/A,,Overcast,0,2014-03-04 01:55:00
8:15 PM,6.3,0.7,78,30.24,10.0,Calm,Calm,-,N/A,,Overcast,0,2014-03-04 02:15:00
8:35 PM,6.3,0.5,77,30.24,10.0,Calm,Calm,-,N/A,,Overcast,0,2014-03-04 02:35:00
8:50 PM,6.1,0.7,78,30.24,7.0,Calm,Calm,-,N/A,,Overcast,0,2014-03-04 02:50:00
9:15 PM,6.1,0.9,79,30.24,2.0,Calm,Calm,-,N/A,Snow,Light Snow,0,2014-03-04 03:15:00
9:35 PM,5.9,1.4,82,30.24,5.0,Calm,Calm,-,N/A,Snow,Light Snow,0,2014-03-04 03:35:00
9:55 PM,5.9,1.4,82,30.23,2.5,Calm,Calm,-,N/A,Snow,Light Snow,0,2014-03-04 03:55:00
10:15 PM,5.9,1.4,82,30.22,2.0,Calm,Calm,-,N/A,Snow,Light Snow,0,2014-03-04 04:15:00
10:35 PM,5.7,1.2,82,30.22,1.8,Calm,Calm,-,N/A,Snow,Light Snow,0,2014-03-04 04:35:00
10:55 PM,5.5,1.4,83,30.21,1.8,Calm,Calm,-,0.01,Snow,Light Snow,0,2014-03-04 04:55:00
11:15 PM,5.5,1.4,83,30.20,2.0,Calm,Calm,-,N/A,Snow,Light Snow,0,2014-03-04 05:15:00
11:35 PM,5.4,1.4,84,30.20,2.5,Calm,Calm,-,N/A,Snow,Light Snow,0,2014-03-04 05:35:00
11:55 PM,5.2,1.4,84,30.19,5.0,Calm,Calm,-,N/A,Snow,Light Snow,0,2014-03-04 05:55:00